Oshawa Municipal Airport

Airport
ICAO code: 
CYOO
IATA Code: 
YOO
Summary
ICAO Region: 
NAM
Territory: 
Location: 
Oshawa, Ontario,
Serving: 
Oshawa
Elevation: 
459 ft
Coordinates: 
Aerial View: 
43° 55' 19.897" N, 78° 53' 42.812" W
Metar
Observation
CYOO 271000Z AUTO 30006KT 9SM CLR M06/M08 A2996 RMK SLP154
Station
OSHAWA
Date/Time
2021-11-27 10:00:00
Wind direction
300°
Wind speed
06 kts
Lowest cloud amount
n/a
Temperature
-6°C
Dew point
-8°C
Humidity
85%
Weather condition
n/a

Description

Oshawa Municipal Airport is a municipal airport adjacent to the north end of the city of Oshawa, Ontario, Canada. Oshawa Airport is one of the major general aviation airports in the Greater Toronto Area.

Climatology

Runways

Designator Length Width Surface Rops
5/23 809 30 ASP No/No
12/30 1219 30 ASP No/No
Airport map: 
Aerial View: 

Accidents and Serious Incidents at or in the vicinity of CYOO

SKYbrary Partners:

Safety knowledge contributed by: